sensor_id;sensor_type;location;lat;lon;timestamp;P1;durP1;ratioP1;P2;durP2;ratioP2
6378;SDS011;3222;48.858;10.128;2023-04-15T00:01:20;3.70;;;2.73;;
6378;SDS011;3222;48.858;10.128;2023-04-15T00:03:46;6.23;;;3.83;;
6378;SDS011;3222;48.858;10.128;2023-04-15T00:06:16;7.73;;;2.27;;
6378;SDS011;3222;48.858;10.128;2023-04-15T00:08:43;4.63;;;2.83;;
6378;SDS011;3222;48.858;10.128;2023-04-15T00:11:09;5.33;;;2.83;;
6378;SDS011;3222;48.858;10.128;2023-04-15T00:13:36;5.80;;;2.30;;
6378;SDS011;3222;48.858;10.128;2023-04-15T00:16:04;6.63;;;2.80;;
6378;SDS011;3222;48.858;10.128;2023-04-15T00:18:30;3.83;;;2.83;;
6378;SDS011;3222;48.858;10.128;2023-04-15T00:20:56;4.03;;;2.60;;
6378;SDS011;3222;48.858;10.128;2023-04-15T00:23:22;5.30;;;2.57;;
6378;SDS011;3222;48.858;10.128;2023-04-15T00:25:48;2.67;;;2.10;;
6378;SDS011;3222;48.858;10.128;2023-04-15T00:28:15;4.77;;;3.00;;
6378;SDS011;3222;48.858;10.128;2023-04-15T00:30:41;3.90;;;2.33;;
6378;SDS011;3222;48.858;10.128;2023-04-15T00:33:07;4.90;;;2.30;;
6378;SDS011;3222;48.858;10.128;2023-04-15T00:35:33;4.40;;;2.53;;
6378;SDS011;3222;48.858;10.128;2023-04-15T00:37:59;3.67;;;2.27;;
6378;SDS011;3222;48.858;10.128;2023-04-15T00:40:25;5.37;;;2.80;;
6378;SDS011;3222;48.858;10.128;2023-04-15T00:42:51;4.17;;;2.53;;
6378;SDS011;3222;48.858;10.128;2023-04-15T00:45:18;3.90;;;2.40;;
6378;SDS011;3222;48.858;10.128;2023-04-15T00:47:44;4.50;;;2.53;;
6378;SDS011;3222;48.858;10.128;2023-04-15T00:50:10;3.03;;;2.63;;
6378;SDS011;3222;48.858;10.128;2023-04-15T00:52:37;10.67;;;2.80;;
6378;SDS011;3222;48.858;10.128;2023-04-15T00:55:03;4.43;;;2.90;;
6378;SDS011;3222;48.858;10.128;2023-04-15T00:57:30;6.90;;;2.60;;
6378;SDS011;3222;48.858;10.128;2023-04-15T00:59:56;3.13;;;2.83;;
6378;SDS011;3222;48.858;10.128;2023-04-15T01:02:22;6.87;;;3.73;;
6378;SDS011;3222;48.858;10.128;2023-04-15T01:04:48;4.27;;;3.10;;
6378;SDS011;3222;48.858;10.128;2023-04-15T01:07:15;3.20;;;2.90;;
6378;SDS011;3222;48.858;10.128;2023-04-15T01:09:41;2.70;;;2.50;;
6378;SDS011;3222;48.858;10.128;2023-04-15T01:12:08;5.70;;;2.90;;
6378;SDS011;3222;48.858;10.128;2023-04-15T01:14:36;3.83;;;2.60;;
6378;SDS011;3222;48.858;10.128;2023-04-15T01:17:02;4.73;;;2.90;;
6378;SDS011;3222;48.858;10.128;2023-04-15T01:19:27;8.63;;;2.80;;
6378;SDS011;3222;48.858;10.128;2023-04-15T01:21:53;5.10;;;3.00;;
6378;SDS011;3222;48.858;10.128;2023-04-15T01:24:19;4.97;;;2.80;;
6378;SDS011;3222;48.858;10.128;2023-04-15T01:26:45;5.37;;;3.10;;
6378;SDS011;3222;48.858;10.128;2023-04-15T01:29:11;3.93;;;2.80;;
6378;SDS011;3222;48.858;10.128;2023-04-15T01:31:37;4.17;;;3.00;;
6378;SDS011;3222;48.858;10.128;2023-04-15T01:34:03;4.17;;;2.90;;
6378;SDS011;3222;48.858;10.128;2023-04-15T01:36:29;3.43;;;2.10;;
6378;SDS011;3222;48.858;10.128;2023-04-15T01:38:55;3.10;;;2.80;;
6378;SDS011;3222;48.858;10.128;2023-04-15T01:41:25;6.17;;;2.90;;
6378;SDS011;3222;48.858;10.128;2023-04-15T01:43:52;6.60;;;3.00;;
6378;SDS011;3222;48.858;10.128;2023-04-15T01:46:18;4.90;;;3.10;;
6378;SDS011;3222;48.858;10.128;2023-04-15T01:48:43;3.30;;;3.00;;
6378;SDS011;3222;48.858;10.128;2023-04-15T01:51:09;4.23;;;3.50;;
6378;SDS011;3222;48.858;10.128;2023-04-15T01:53:35;4.03;;;3.00;;
6378;SDS011;3222;48.858;10.128;2023-04-15T01:56:01;8.23;;;3.17;;
6378;SDS011;3222;48.858;10.128;2023-04-15T01:58:27;3.77;;;3.10;;
6378;SDS011;3222;48.858;10.128;2023-04-15T02:00:53;3.70;;;3.20;;
6378;SDS011;3222;48.858;10.128;2023-04-15T02:03:18;3.40;;;3.00;;
6378;SDS011;3222;48.858;10.128;2023-04-15T02:05:44;2.67;;;2.53;;
6378;SDS011;3222;48.858;10.128;2023-04-15T02:08:10;5.20;;;3.40;;
6378;SDS011;3222;48.858;10.128;2023-04-15T02:10:37;4.37;;;3.73;;
6378;SDS011;3222;48.858;10.128;2023-04-15T02:13:03;6.27;;;3.47;;
6378;SDS011;3222;48.858;10.128;2023-04-15T02:15:29;7.40;;;3.07;;
6378;SDS011;3222;48.858;10.128;2023-04-15T02:17:55;4.27;;;3.00;;
6378;SDS011;3222;48.858;10.128;2023-04-15T02:20:21;5.13;;;2.60;;
6378;SDS011;3222;48.858;10.128;2023-04-15T02:22:47;5.73;;;2.70;;
6378;SDS011;3222;48.858;10.128;2023-04-15T02:25:14;3.40;;;2.60;;
6378;SDS011;3222;48.858;10.128;2023-04-15T02:27:41;2.97;;;2.77;;
6378;SDS011;3222;48.858;10.128;2023-04-15T02:30:08;4.60;;;3.10;;
6378;SDS011;3222;48.858;10.128;2023-04-15T02:32:34;3.00;;;2.50;;
6378;SDS011;3222;48.858;10.128;2023-04-15T02:35:04;3.53;;;3.03;;
6378;SDS011;3222;48.858;10.128;2023-04-15T02:37:31;3.40;;;2.80;;
6378;SDS011;3222;48.858;10.128;2023-04-15T02:40:01;4.37;;;2.57;;
6378;SDS011;3222;48.858;10.128;2023-04-15T02:42:27;7.00;;;2.87;;
6378;SDS011;3222;48.858;10.128;2023-04-15T02:44:54;3.03;;;2.60;;
6378;SDS011;3222;48.858;10.128;2023-04-15T02:47:24;7.63;;;3.10;;
6378;SDS011;3222;48.858;10.128;2023-04-15T02:49:50;7.63;;;3.27;;
6378;SDS011;3222;48.858;10.128;2023-04-15T02:52:16;8.23;;;2.73;;
6378;SDS011;3222;48.858;10.128;2023-04-15T02:54:41;5.50;;;3.23;;
6378;SDS011;3222;48.858;10.128;2023-04-15T02:57:07;7.73;;;3.00;;
6378;SDS011;3222;48.858;10.128;2023-04-15T02:59:34;3.63;;;2.90;;
6378;SDS011;3222;48.858;10.128;2023-04-15T03:02:00;4.60;;;3.27;;
6378;SDS011;3222;48.858;10.128;2023-04-15T03:04:26;14.93;;;3.73;;
6378;SDS011;3222;48.858;10.128;2023-04-15T03:06:54;7.53;;;3.10;;
6378;SDS011;3222;48.858;10.128;2023-04-15T03:09:20;5.57;;;3.00;;
6378;SDS011;3222;48.858;10.128;2023-04-15T03:11:46;5.63;;;2.90;;
6378;SDS011;3222;48.858;10.128;2023-04-15T03:14:12;6.43;;;3.23;;
6378;SDS011;3222;48.858;10.128;2023-04-15T03:16:42;5.53;;;3.57;;
6378;SDS011;3222;48.858;10.128;2023-04-15T03:19:08;4.10;;;3.03;;
6378;SDS011;3222;48.858;10.128;2023-04-15T03:21:33;6.33;;;2.87;;
6378;SDS011;3222;48.858;10.128;2023-04-15T03:23:59;6.57;;;3.00;;
6378;SDS011;3222;48.858;10.128;2023-04-15T03:26:25;5.23;;;3.00;;
6378;SDS011;3222;48.858;10.128;2023-04-15T03:28:53;4.70;;;2.80;;
6378;SDS011;3222;48.858;10.128;2023-04-15T03:31:19;7.37;;;2.73;;
6378;SDS011;3222;48.858;10.128;2023-04-15T03:33:45;3.40;;;3.10;;
6378;SDS011;3222;48.858;10.128;2023-04-15T03:36:11;2.80;;;2.60;;
6378;SDS011;3222;48.858;10.128;2023-04-15T03:38:37;8.50;;;3.20;;
6378;SDS011;3222;48.858;10.128;2023-04-15T03:41:02;3.80;;;3.00;;
6378;SDS011;3222;48.858;10.128;2023-04-15T03:43:28;2.77;;;2.57;;
6378;SDS011;3222;48.858;10.128;2023-04-15T03:45:54;3.30;;;3.10;;
6378;SDS011;3222;48.858;10.128;2023-04-15T03:48:19;7.57;;;3.03;;
6378;SDS011;3222;48.858;10.128;2023-04-15T03:50:45;5.93;;;3.00;;
6378;SDS011;3222;48.858;10.128;2023-04-15T03:53:11;3.03;;;2.73;;
6378;SDS011;3222;48.858;10.128;2023-04-15T03:55:36;3.00;;;2.80;;
6378;SDS011;3222;48.858;10.128;2023-04-15T03:58:02;3.63;;;2.90;;
6378;SDS011;3222;48.858;10.128;2023-04-15T04:00:28;4.23;;;2.40;;
6378;SDS011;3222;48.858;10.128;2023-04-15T04:02:54;3.63;;;2.50;;
6378;SDS011;3222;48.858;10.128;2023-04-15T04:05:19;4.10;;;2.60;;
6378;SDS011;3222;48.858;10.128;2023-04-15T04:07:45;6.30;;;2.50;;
6378;SDS011;3222;48.858;10.128;2023-04-15T04:10:11;3.00;;;2.67;;
6378;SDS011;3222;48.858;10.128;2023-04-15T04:12:37;5.27;;;2.67;;
6378;SDS011;3222;48.858;10.128;2023-04-15T04:15:03;7.80;;;3.30;;
6378;SDS011;3222;48.858;10.128;2023-04-15T04:17:29;3.43;;;2.60;;
6378;SDS011;3222;48.858;10.128;2023-04-15T04:19:55;3.47;;;2.40;;
6378;SDS011;3222;48.858;10.128;2023-04-15T04:22:23;3.73;;;2.00;;
6378;SDS011;3222;48.858;10.128;2023-04-15T04:24:49;4.93;;;2.40;;
6378;SDS011;3222;48.858;10.128;2023-04-15T04:27:15;9.50;;;2.53;;
6378;SDS011;3222;48.858;10.128;2023-04-15T04:29:41;6.60;;;2.73;;
6378;SDS011;3222;48.858;10.128;2023-04-15T04:32:07;5.60;;;3.80;;
6378;SDS011;3222;48.858;10.128;2023-04-15T04:34:33;5.70;;;2.60;;
6378;SDS011;3222;48.858;10.128;2023-04-15T04:36:58;4.17;;;2.57;;
6378;SDS011;3222;48.858;10.128;2023-04-15T04:39:24;2.80;;;2.60;;
6378;SDS011;3222;48.858;10.128;2023-04-15T04:41:50;4.73;;;2.60;;
6378;SDS011;3222;48.858;10.128;2023-04-15T04:44:19;8.10;;;2.80;;
6378;SDS011;3222;48.858;10.128;2023-04-15T04:46:44;5.50;;;2.87;;
6378;SDS011;3222;48.858;10.128;2023-04-15T04:49:10;6.10;;;2.80;;
6378;SDS011;3222;48.858;10.128;2023-04-15T04:51:36;6.03;;;2.80;;
6378;SDS011;3222;48.858;10.128;2023-04-15T04:54:02;8.00;;;3.70;;
6378;SDS011;3222;48.858;10.128;2023-04-15T04:56:28;3.93;;;2.63;;
6378;SDS011;3222;48.858;10.128;2023-04-15T04:58:53;5.17;;;2.80;;
6378;SDS011;3222;48.858;10.128;2023-04-15T05:01:19;4.90;;;3.03;;
6378;SDS011;3222;48.858;10.128;2023-04-15T05:03:45;8.60;;;2.70;;
6378;SDS011;3222;48.858;10.128;2023-04-15T05:06:11;8.40;;;2.70;;
6378;SDS011;3222;48.858;10.128;2023-04-15T05:08:36;4.07;;;2.87;;
6378;SDS011;3222;48.858;10.128;2023-04-15T05:11:02;11.00;;;2.67;;
6378;SDS011;3222;48.858;10.128;2023-04-15T05:13:28;6.10;;;2.60;;
6378;SDS011;3222;48.858;10.128;2023-04-15T05:15:54;5.70;;;2.90;;
6378;SDS011;3222;48.858;10.128;2023-04-15T05:18:20;5.83;;;2.90;;
6378;SDS011;3222;48.858;10.128;2023-04-15T05:20:46;3.40;;;2.77;;
6378;SDS011;3222;48.858;10.128;2023-04-15T05:23:14;3.00;;;2.73;;
6378;SDS011;3222;48.858;10.128;2023-04-15T05:25:40;5.17;;;2.77;;
6378;SDS011;3222;48.858;10.128;2023-04-15T05:28:06;4.63;;;2.73;;
6378;SDS011;3222;48.858;10.128;2023-04-15T05:30:32;5.97;;;2.90;;
6378;SDS011;3222;48.858;10.128;2023-04-15T05:32:57;4.37;;;3.17;;
6378;SDS011;3222;48.858;10.128;2023-04-15T05:35:23;4.63;;;2.70;;
6378;SDS011;3222;48.858;10.128;2023-04-15T05:37:49;3.83;;;2.60;;
6378;SDS011;3222;48.858;10.128;2023-04-15T05:40:15;9.43;;;2.90;;
6378;SDS011;3222;48.858;10.128;2023-04-15T05:42:41;5.23;;;2.57;;
6378;SDS011;3222;48.858;10.128;2023-04-15T05:45:07;6.97;;;2.47;;
6378;SDS011;3222;48.858;10.128;2023-04-15T05:47:36;4.23;;;2.40;;
6378;SDS011;3222;48.858;10.128;2023-04-15T05:50:02;3.33;;;2.27;;
6378;SDS011;3222;48.858;10.128;2023-04-15T05:52:29;3.13;;;2.33;;
6378;SDS011;3222;48.858;10.128;2023-04-15T05:54:55;5.47;;;2.40;;
6378;SDS011;3222;48.858;10.128;2023-04-15T05:57:21;3.47;;;2.90;;
6378;SDS011;3222;48.858;10.128;2023-04-15T05:59:47;4.30;;;2.37;;
6378;SDS011;3222;48.858;10.128;2023-04-15T06:02:13;4.53;;;2.40;;
6378;SDS011;3222;48.858;10.128;2023-04-15T06:04:39;6.60;;;2.97;;
6378;SDS011;3222;48.858;10.128;2023-04-15T06:07:04;5.67;;;2.70;;
6378;SDS011;3222;48.858;10.128;2023-04-15T06:09:30;5.53;;;2.97;;
6378;SDS011;3222;48.858;10.128;2023-04-15T06:11:56;5.17;;;2.83;;
6378;SDS011;3222;48.858;10.128;2023-04-15T06:14:23;3.23;;;2.80;;
6378;SDS011;3222;48.858;10.128;2023-04-15T06:16:48;3.47;;;2.70;;
6378;SDS011;3222;48.858;10.128;2023-04-15T06:19:14;3.93;;;2.97;;
6378;SDS011;3222;48.858;10.128;2023-04-15T06:21:40;4.50;;;2.90;;
6378;SDS011;3222;48.858;10.128;2023-04-15T06:24:06;5.73;;;2.80;;
6378;SDS011;3222;48.858;10.128;2023-04-15T06:26:31;3.70;;;2.63;;
6378;SDS011;3222;48.858;10.128;2023-04-15T06:28:57;3.93;;;2.80;;
6378;SDS011;3222;48.858;10.128;2023-04-15T06:31:23;3.80;;;2.87;;
6378;SDS011;3222;48.858;10.128;2023-04-15T06:33:48;6.20;;;3.30;;
6378;SDS011;3222;48.858;10.128;2023-04-15T06:36:14;4.17;;;3.20;;
6378;SDS011;3222;48.858;10.128;2023-04-15T06:38:40;3.90;;;2.90;;
6378;SDS011;3222;48.858;10.128;2023-04-15T06:41:06;3.37;;;2.87;;
6378;SDS011;3222;48.858;10.128;2023-04-15T06:43:32;5.50;;;3.40;;
6378;SDS011;3222;48.858;10.128;2023-04-15T06:45:57;3.90;;;3.00;;
6378;SDS011;3222;48.858;10.128;2023-04-15T06:48:23;6.23;;;2.80;;
6378;SDS011;3222;48.858;10.128;2023-04-15T06:50:49;5.10;;;2.83;;
6378;SDS011;3222;48.858;10.128;2023-04-15T06:53:14;4.90;;;2.87;;
6378;SDS011;3222;48.858;10.128;2023-04-15T06:55:40;3.63;;;3.10;;
6378;SDS011;3222;48.858;10.128;2023-04-15T06:58:06;5.10;;;2.87;;
6378;SDS011;3222;48.858;10.128;2023-04-15T07:00:32;3.60;;;2.83;;
6378;SDS011;3222;48.858;10.128;2023-04-15T07:02:58;4.23;;;3.07;;
6378;SDS011;3222;48.858;10.128;2023-04-15T07:05:27;3.37;;;2.90;;
6378;SDS011;3222;48.858;10.128;2023-04-15T07:07:54;3.03;;;2.80;;
6378;SDS011;3222;48.858;10.128;2023-04-15T07:10:23;5.17;;;3.33;;
6378;SDS011;3222;48.858;10.128;2023-04-15T07:12:49;5.80;;;3.17;;
6378;SDS011;3222;48.858;10.128;2023-04-15T07:15:15;3.53;;;2.70;;
6378;SDS011;3222;48.858;10.128;2023-04-15T07:17:41;4.03;;;3.00;;
6378;SDS011;3222;48.858;10.128;2023-04-15T07:20:09;2.90;;;2.70;;
6378;SDS011;3222;48.858;10.128;2023-04-15T07:22:38;4.60;;;3.10;;
6378;SDS011;3222;48.858;10.128;2023-04-15T07:25:05;4.80;;;3.33;;
6378;SDS011;3222;48.858;10.128;2023-04-15T07:27:31;8.27;;;3.60;;
6378;SDS011;3222;48.858;10.128;2023-04-15T07:29:57;3.97;;;3.10;;
6378;SDS011;3222;48.858;10.128;2023-04-15T07:32:23;3.80;;;2.83;;
6378;SDS011;3222;48.858;10.128;2023-04-15T07:34:48;4.13;;;3.13;;
6378;SDS011;3222;48.858;10.128;2023-04-15T07:37:14;4.57;;;3.23;;
6378;SDS011;3222;48.858;10.128;2023-04-15T07:39:40;4.47;;;3.40;;
6378;SDS011;3222;48.858;10.128;2023-04-15T07:42:06;5.23;;;3.87;;
6378;SDS011;3222;48.858;10.128;2023-04-15T07:44:32;4.50;;;3.60;;
6378;SDS011;3222;48.858;10.128;2023-04-15T07:46:58;7.90;;;4.20;;
6378;SDS011;3222;48.858;10.128;2023-04-15T07:49:24;6.40;;;3.60;;
6378;SDS011;3222;48.858;10.128;2023-04-15T07:51:49;7.70;;;5.27;;
6378;SDS011;3222;48.858;10.128;2023-04-15T07:54:15;13.10;;;4.60;;
6378;SDS011;3222;48.858;10.128;2023-04-15T07:56:41;17.80;;;4.33;;
6378;SDS011;3222;48.858;10.128;2023-04-15T07:59:07;27.33;;;4.63;;
6378;SDS011;3222;48.858;10.128;2023-04-15T08:01:33;8.93;;;4.87;;
6378;SDS011;3222;48.858;10.128;2023-04-15T08:03:59;11.97;;;4.73;;
6378;SDS011;3222;48.858;10.128;2023-04-15T08:06:26;10.37;;;4.67;;
6378;SDS011;3222;48.858;10.128;2023-04-15T08:08:53;14.87;;;6.00;;
6378;SDS011;3222;48.858;10.128;2023-04-15T08:11:19;12.50;;;6.10;;
6378;SDS011;3222;48.858;10.128;2023-04-15T08:13:45;7.30;;;4.70;;
6378;SDS011;3222;48.858;10.128;2023-04-15T08:16:18;8.77;;;5.53;;
6378;SDS011;3222;48.858;10.128;2023-04-15T08:18:46;9.67;;;6.60;;
6378;SDS011;3222;48.858;10.128;2023-04-15T08:21:13;9.90;;;7.23;;
6378;SDS011;3222;48.858;10.128;2023-04-15T08:23:39;19.87;;;11.40;;
6378;SDS011;3222;48.858;10.128;2023-04-15T08:26:05;12.33;;;8.63;;
6378;SDS011;3222;48.858;10.128;2023-04-15T08:28:31;11.13;;;7.37;;
6378;SDS011;3222;48.858;10.128;2023-04-15T08:30:57;11.90;;;6.87;;
6378;SDS011;3222;48.858;10.128;2023-04-15T08:33:23;12.33;;;7.53;;
6378;SDS011;3222;48.858;10.128;2023-04-15T08:35:49;9.13;;;6.20;;
6378;SDS011;3222;48.858;10.128;2023-04-15T08:38:15;8.67;;;6.03;;
6378;SDS011;3222;48.858;10.128;2023-04-15T08:40:42;9.80;;;5.33;;
6378;SDS011;3222;48.858;10.128;2023-04-15T08:43:22;9.87;;;5.70;;
6378;SDS011;3222;48.858;10.128;2023-04-15T08:45:54;11.03;;;6.70;;
6378;SDS011;3222;48.858;10.128;2023-04-15T08:48:20;8.30;;;5.70;;
6378;SDS011;3222;48.858;10.128;2023-04-15T08:50:48;6.30;;;5.03;;
6378;SDS011;3222;48.858;10.128;2023-04-15T08:53:15;7.03;;;4.10;;
6378;SDS011;3222;48.858;10.128;2023-04-15T08:55:42;5.70;;;4.30;;
6378;SDS011;3222;48.858;10.128;2023-04-15T08:58:12;5.00;;;4.43;;
6378;SDS011;3222;48.858;10.128;2023-04-15T09:00:40;6.07;;;3.93;;
6378;SDS011;3222;48.858;10.128;2023-04-15T09:03:06;9.43;;;4.27;;
6378;SDS011;3222;48.858;10.128;2023-04-15T09:05:33;5.50;;;4.70;;
6378;SDS011;3222;48.858;10.128;2023-04-15T09:08:00;4.60;;;4.13;;
6378;SDS011;3222;48.858;10.128;2023-04-15T09:10:27;6.63;;;4.53;;
6378;SDS011;3222;48.858;10.128;2023-04-15T09:12:53;6.47;;;4.10;;
6378;SDS011;3222;48.858;10.128;2023-04-15T09:15:19;6.13;;;3.90;;
6378;SDS011;3222;48.858;10.128;2023-04-15T09:17:45;6.10;;;4.20;;
6378;SDS011;3222;48.858;10.128;2023-04-15T09:20:13;5.77;;;4.03;;
6378;SDS011;3222;48.858;10.128;2023-04-15T09:22:40;4.30;;;3.67;;
6378;SDS011;3222;48.858;10.128;2023-04-15T09:25:24;8.80;;;4.20;;
6378;SDS011;3222;48.858;10.128;2023-04-15T09:30:18;3.97;;;3.57;;
6378;SDS011;3222;48.858;10.128;2023-04-15T09:32:54;6.40;;;4.40;;
6378;SDS011;3222;48.858;10.128;2023-04-15T09:35:20;6.90;;;4.10;;
6378;SDS011;3222;48.858;10.128;2023-04-15T09:37:50;8.23;;;4.23;;
6378;SDS011;3222;48.858;10.128;2023-04-15T09:40:33;4.70;;;3.50;;
6378;SDS011;3222;48.858;10.128;2023-04-15T09:43:06;8.00;;;4.07;;
6378;SDS011;3222;48.858;10.128;2023-04-15T09:45:33;4.67;;;4.13;;
6378;SDS011;3222;48.858;10.128;2023-04-15T09:50:48;4.20;;;3.80;;
6378;SDS011;3222;48.858;10.128;2023-04-15T09:53:15;8.10;;;5.73;;
6378;SDS011;3222;48.858;10.128;2023-04-15T09:58:18;13.43;;;6.47;;
6378;SDS011;3222;48.858;10.128;2023-04-15T10:00:45;8.73;;;5.73;;
6378;SDS011;3222;48.858;10.128;2023-04-15T10:03:14;8.07;;;5.47;;
6378;SDS011;3222;48.858;10.128;2023-04-15T10:05:54;9.13;;;5.87;;
6378;SDS011;3222;48.858;10.128;2023-04-15T10:08:21;7.43;;;5.57;;
6378;SDS011;3222;48.858;10.128;2023-04-15T10:10:49;7.67;;;5.53;;
6378;SDS011;3222;48.858;10.128;2023-04-15T10:13:20;6.57;;;5.63;;
6378;SDS011;3222;48.858;10.128;2023-04-15T10:15:57;6.50;;;5.83;;
6378;SDS011;3222;48.858;10.128;2023-04-15T10:18:26;7.47;;;5.67;;
6378;SDS011;3222;48.858;10.128;2023-04-15T10:20:53;6.27;;;5.67;;
6378;SDS011;3222;48.858;10.128;2023-04-15T10:23:19;8.63;;;6.20;;
6378;SDS011;3222;48.858;10.128;2023-04-15T10:25:47;7.10;;;6.40;;
6378;SDS011;3222;48.858;10.128;2023-04-15T10:28:15;8.80;;;7.30;;
6378;SDS011;3222;48.858;10.128;2023-04-15T10:30:41;9.83;;;6.57;;
6378;SDS011;3222;48.858;10.128;2023-04-15T10:33:08;7.93;;;6.80;;
6378;SDS011;3222;48.858;10.128;2023-04-15T10:35:35;11.30;;;7.60;;
6378;SDS011;3222;48.858;10.128;2023-04-15T10:38:01;10.13;;;6.93;;
6378;SDS011;3222;48.858;10.128;2023-04-15T10:40:30;7.30;;;6.57;;
6378;SDS011;3222;48.858;10.128;2023-04-15T10:42:57;7.53;;;6.20;;
6378;SDS011;3222;48.858;10.128;2023-04-15T10:45:25;8.03;;;6.90;;
6378;SDS011;3222;48.858;10.128;2023-04-15T10:47:55;8.60;;;5.87;;
6378;SDS011;3222;48.858;10.128;2023-04-15T10:50:24;6.37;;;5.77;;
6378;SDS011;3222;48.858;10.128;2023-04-15T10:52:51;8.13;;;6.30;;
6378;SDS011;3222;48.858;10.128;2023-04-15T10:55:18;8.67;;;6.60;;
6378;SDS011;3222;48.858;10.128;2023-04-15T10:57:45;6.53;;;5.40;;
6378;SDS011;3222;48.858;10.128;2023-04-15T11:00:16;8.20;;;5.90;;
6378;SDS011;3222;48.858;10.128;2023-04-15T11:02:53;9.57;;;6.80;;
6378;SDS011;3222;48.858;10.128;2023-04-15T11:08:09;7.23;;;5.07;;
6378;SDS011;3222;48.858;10.128;2023-04-15T11:15:31;7.20;;;4.90;;
6378;SDS011;3222;48.858;10.128;2023-04-15T11:20:41;6.47;;;4.57;;
6378;SDS011;3222;48.858;10.128;2023-04-15T11:23:11;5.77;;;4.40;;
6378;SDS011;3222;48.858;10.128;2023-04-15T11:25:38;7.20;;;5.07;;
6378;SDS011;3222;48.858;10.128;2023-04-15T11:28:05;5.43;;;4.93;;
6378;SDS011;3222;48.858;10.128;2023-04-15T11:30:35;6.70;;;5.00;;
6378;SDS011;3222;48.858;10.128;2023-04-15T11:33:03;5.90;;;5.27;;
6378;SDS011;3222;48.858;10.128;2023-04-15T11:35:30;6.20;;;5.27;;
6378;SDS011;3222;48.858;10.128;2023-04-15T11:37:56;6.97;;;5.60;;
6378;SDS011;3222;48.858;10.128;2023-04-15T11:40:23;6.90;;;5.60;;
6378;SDS011;3222;48.858;10.128;2023-04-15T11:45:37;6.17;;;5.53;;
6378;SDS011;3222;48.858;10.128;2023-04-15T11:48:12;8.83;;;5.20;;
6378;SDS011;3222;48.858;10.128;2023-04-15T11:50:38;5.90;;;4.67;;
6378;SDS011;3222;48.858;10.128;2023-04-15T11:53:05;5.40;;;4.90;;
6378;SDS011;3222;48.858;10.128;2023-04-15T11:55:42;8.97;;;5.83;;
6378;SDS011;3222;48.858;10.128;2023-04-15T11:58:16;6.67;;;5.40;;
6378;SDS011;3222;48.858;10.128;2023-04-15T12:00:56;8.33;;;5.47;;
6378;SDS011;3222;48.858;10.128;2023-04-15T12:08:46;8.73;;;6.27;;
6378;SDS011;3222;48.858;10.128;2023-04-15T12:11:17;9.43;;;7.07;;
6378;SDS011;3222;48.858;10.128;2023-04-15T12:13:45;8.57;;;5.57;;
6378;SDS011;3222;48.858;10.128;2023-04-15T12:16:15;5.73;;;5.13;;
6378;SDS011;3222;48.858;10.128;2023-04-15T12:18:43;7.00;;;5.17;;
6378;SDS011;3222;48.858;10.128;2023-04-15T12:21:10;8.70;;;5.70;;
6378;SDS011;3222;48.858;10.128;2023-04-15T12:23:39;6.00;;;4.87;;
6378;SDS011;3222;48.858;10.128;2023-04-15T12:26:13;7.70;;;5.10;;
6378;SDS011;3222;48.858;10.128;2023-04-15T12:28:40;6.13;;;5.50;;
6378;SDS011;3222;48.858;10.128;2023-04-15T12:31:09;5.67;;;4.20;;
6378;SDS011;3222;48.858;10.128;2023-04-15T12:33:37;4.37;;;3.40;;
6378;SDS011;3222;48.858;10.128;2023-04-15T12:36:03;4.60;;;3.53;;
6378;SDS011;3222;48.858;10.128;2023-04-15T12:38:29;5.00;;;3.47;;
6378;SDS011;3222;48.858;10.128;2023-04-15T12:40:56;5.60;;;3.40;;
6378;SDS011;3222;48.858;10.128;2023-04-15T12:43:22;9.20;;;3.90;;
6378;SDS011;3222;48.858;10.128;2023-04-15T12:45:48;4.17;;;3.50;;
6378;SDS011;3222;48.858;10.128;2023-04-15T12:48:14;4.67;;;3.27;;
6378;SDS011;3222;48.858;10.128;2023-04-15T12:50:40;3.30;;;3.00;;
6378;SDS011;3222;48.858;10.128;2023-04-15T12:53:05;4.13;;;2.80;;
6378;SDS011;3222;48.858;10.128;2023-04-15T12:55:31;3.37;;;2.70;;
6378;SDS011;3222;48.858;10.128;2023-04-15T12:57:57;5.33;;;2.50;;
6378;SDS011;3222;48.858;10.128;2023-04-15T13:00:23;2.40;;;2.20;;
6378;SDS011;3222;48.858;10.128;2023-04-15T13:02:48;3.60;;;2.47;;
6378;SDS011;3222;48.858;10.128;2023-04-15T13:05:14;3.57;;;2.20;;
6378;SDS011;3222;48.858;10.128;2023-04-15T13:07:40;3.30;;;2.30;;
6378;SDS011;3222;48.858;10.128;2023-04-15T13:10:06;4.57;;;2.30;;
6378;SDS011;3222;48.858;10.128;2023-04-15T13:12:32;4.67;;;2.60;;
6378;SDS011;3222;48.858;10.128;2023-04-15T13:15:04;6.43;;;2.23;;
6378;SDS011;3222;48.858;10.128;2023-04-15T13:17:30;1.77;;;1.67;;
6378;SDS011;3222;48.858;10.128;2023-04-15T13:19:55;2.17;;;2.00;;
6378;SDS011;3222;48.858;10.128;2023-04-15T13:22:21;2.60;;;1.83;;
6378;SDS011;3222;48.858;10.128;2023-04-15T13:24:47;2.40;;;1.73;;
6378;SDS011;3222;48.858;10.128;2023-04-15T13:27:13;5.87;;;1.90;;
6378;SDS011;3222;48.858;10.128;2023-04-15T13:29:39;2.27;;;1.73;;
6378;SDS011;3222;48.858;10.128;2023-04-15T13:32:05;2.23;;;1.70;;
6378;SDS011;3222;48.858;10.128;2023-04-15T13:34:31;2.47;;;1.80;;
6378;SDS011;3222;48.858;10.128;2023-04-15T13:36:56;1.77;;;1.67;;
6378;SDS011;3222;48.858;10.128;2023-04-15T13:39:22;1.80;;;1.70;;
6378;SDS011;3222;48.858;10.128;2023-04-15T13:41:48;3.70;;;1.80;;
6378;SDS011;3222;48.858;10.128;2023-04-15T13:44:13;4.80;;;1.60;;
6378;SDS011;3222;48.858;10.128;2023-04-15T13:46:39;4.40;;;1.63;;
6378;SDS011;3222;48.858;10.128;2023-04-15T13:49:08;2.13;;;1.93;;
6378;SDS011;3222;48.858;10.128;2023-04-15T13:51:33;2.30;;;1.70;;
6378;SDS011;3222;48.858;10.128;2023-04-15T13:54:01;2.33;;;1.60;;
6378;SDS011;3222;48.858;10.128;2023-04-15T13:56:26;2.23;;;1.70;;
6378;SDS011;3222;48.858;10.128;2023-04-15T13:58:53;2.43;;;1.87;;
6378;SDS011;3222;48.858;10.128;2023-04-15T14:01:22;3.27;;;2.00;;
6378;SDS011;3222;48.858;10.128;2023-04-15T14:03:49;4.77;;;2.00;;
6378;SDS011;3222;48.858;10.128;2023-04-15T14:06:15;4.27;;;1.90;;
6378;SDS011;3222;48.858;10.128;2023-04-15T14:08:41;1.90;;;1.80;;
6378;SDS011;3222;48.858;10.128;2023-04-15T14:11:06;4.23;;;1.90;;
6378;SDS011;3222;48.858;10.128;2023-04-15T14:13:32;5.10;;;2.07;;
6378;SDS011;3222;48.858;10.128;2023-04-15T14:15:58;4.87;;;2.10;;
6378;SDS011;3222;48.858;10.128;2023-04-15T14:18:24;4.97;;;2.47;;
6378;SDS011;3222;48.858;10.128;2023-04-15T14:20:50;6.70;;;3.80;;
6378;SDS011;3222;48.858;10.128;2023-04-15T14:23:16;7.17;;;5.87;;
6378;SDS011;3222;48.858;10.128;2023-04-15T14:25:41;9.20;;;6.77;;
6378;SDS011;3222;48.858;10.128;2023-04-15T14:28:07;7.13;;;5.57;;
6378;SDS011;3222;48.858;10.128;2023-04-15T14:30:33;8.00;;;6.17;;
6378;SDS011;3222;48.858;10.128;2023-04-15T14:32:58;7.17;;;4.90;;
6378;SDS011;3222;48.858;10.128;2023-04-15T14:35:24;3.77;;;3.10;;
6378;SDS011;3222;48.858;10.128;2023-04-15T14:37:54;4.73;;;3.30;;
6378;SDS011;3222;48.858;10.128;2023-04-15T14:40:20;3.33;;;2.70;;
6378;SDS011;3222;48.858;10.128;2023-04-15T14:42:46;4.80;;;3.27;;
6378;SDS011;3222;48.858;10.128;2023-04-15T14:45:12;4.03;;;3.10;;
6378;SDS011;3222;48.858;10.128;2023-04-15T14:47:37;3.40;;;3.10;;
6378;SDS011;3222;48.858;10.128;2023-04-15T14:50:03;4.60;;;2.93;;
6378;SDS011;3222;48.858;10.128;2023-04-15T14:52:30;3.83;;;3.30;;
6378;SDS011;3222;48.858;10.128;2023-04-15T14:57:32;3.43;;;3.13;;
6378;SDS011;3222;48.858;10.128;2023-04-15T14:59:57;3.13;;;2.50;;
6378;SDS011;3222;48.858;10.128;2023-04-15T15:02:23;3.33;;;2.67;;
6378;SDS011;3222;48.858;10.128;2023-04-15T15:04:49;3.60;;;2.50;;
6378;SDS011;3222;48.858;10.128;2023-04-15T15:07:15;9.53;;;4.53;;
6378;SDS011;3222;48.858;10.128;2023-04-15T15:09:40;9.47;;;4.47;;
6378;SDS011;3222;48.858;10.128;2023-04-15T15:12:06;6.57;;;3.77;;
6378;SDS011;3222;48.858;10.128;2023-04-15T15:14:32;4.60;;;3.40;;
6378;SDS011;3222;48.858;10.128;2023-04-15T15:16:58;4.47;;;2.83;;
6378;SDS011;3222;48.858;10.128;2023-04-15T15:19:25;3.00;;;2.70;;
6378;SDS011;3222;48.858;10.128;2023-04-15T15:21:51;2.57;;;2.30;;
6378;SDS011;3222;48.858;10.128;2023-04-15T15:24:17;3.20;;;2.90;;
6378;SDS011;3222;48.858;10.128;2023-04-15T15:26:42;2.90;;;2.60;;